Latest Weather Observations for Roseworthy

IDS60901

Issued at 3:01 pm CST Sunday 18 August 2019 (issued every 10 minutes, with the page automatically refreshed every 10 minutes)

About weather observations | Map of Adelaide area stations | Latest observations for Adelaide area | Other Formats
Station Details ID: 023122 Name: ROSEWORTHY AWS Lat: -34.51 Lon: 138.68 Height: 65.0 m
Data from the previous 72 hours. | See also: Recent months at Roseworthy
Date/Time
CST
Temp
°C
App
Temp
°C
Dew
Point
°C
Rel
Hum
%
Delta-T
°C
Wind Press
QNH
hPa
Press
MSL
hPa
Rain since
9am
mm
Dir  Spd
km/h
Gust
km/h
Spd
kts
Gust
kts
18/03:00pm 10.5 1.5 6.5 76 1.9 W 43 56 23 30 1013.2 1013.3 0.0
18/02:30pm 11.0 4.0 6.9 76 2.0 WNW 33 46 18 25 1012.7 1012.8 0.0
18/02:13pm 11.0 3.8 7.7 80 1.6 W 35 54 19 29 1012.6 1012.7 0.0
18/02:00pm 11.1 2.2 7.6 79 1.7 W 44 56 24 30 1012.5 1012.6 0.0
18/01:30pm 13.1 4.7 9.0 76 2.1 W 43 59 23 32 1011.7 1011.8 0.0
18/01:15pm 12.9 4.8 8.8 76 2.1 WNW 41 59 22 32 1011.7 1011.8 0.0
18/01:00pm 12.3 3.7 8.0 75 2.1 WNW 43 56 23 30 1012.0 1012.1 0.0
18/12:30pm 12.7 4.3 8.8 77 2.0 WNW 43 54 23 29 1012.0 1012.1 0.0
18/12:00pm 11.3 4.3 8.3 82 1.5 WNW 35 46 19 25 1012.2 1012.3 0.0
18/11:36am 10.0 3.9 8.1 88 0.9 WNW 30 50 16 27 1011.9 1012.0 0.0
18/11:30am 9.7 4.0 8.5 92 0.6 WNW 28 39 15 21 1012.0 1012.1 0.0
18/11:00am 9.7 2.3 8.5 92 0.6 W 37 50 20 27 1012.4 1012.5 0.0
18/10:30am 11.2 2.7 8.4 83 1.4 W 43 57 23 31 1012.0 1012.1 0.0
18/10:28am 11.4 3.6 8.4 82 1.5 WNW 39 57 21 31 1012.0 1012.1 0.0
18/10:00am 11.7 3.9 9.8 88 1.0 WNW 41 52 22 28 1011.9 1012.0 0.0
18/09:41am 11.1 4.0 9.5 90 0.8 WNW 37 56 20 30 1011.6 1011.7 0.0
18/09:30am 10.5 2.5 8.9 90 0.8 WNW 41 52 22 28 1011.3 1011.4 0.0
18/09:00am 10.3 2.8 9.5 95 0.4 W 39 57 21 31 1011.3 1011.4 2.2
18/08:49am 10.4 4.0 9.5 94 0.5 WNW 33 52 18 28 1011.2 1011.3 2.2
18/08:30am 10.1 3.7 9.2 94 0.4 WNW 33 43 18 23 1011.2 1011.3 2.2
18/08:00am 9.8 4.8 9.7 99 0.1 NW 26 39 14 21 1011.0 1011.1 2.2
18/07:30am 9.5 4.9 9.5 100 0.0 NW 24 32 13 17 1010.7 1010.8 2.2
18/07:00am 9.9 4.2 9.9 100 0.0 NW 30 39 16 21 1010.4 1010.5 2.2
18/06:30am 10.3 5.5 10.3 100 0.0 NW 26 33 14 18 1010.2 1010.3 2.2
18/06:00am 10.3 5.9 10.3 100 0.0 NW 24 32 13 17 1009.9 1010.0 2.2
18/05:30am 10.4 6.4 10.4 100 0.0 NW 22 30 12 16 1009.8 1009.9 2.0
18/05:00am 10.8 6.9 10.8 100 0.0 NW 22 28 12 15 1009.7 1009.8 2.0
18/04:30am 11.0 7.2 11.0 100 0.0 NW 22 30 12 16 1009.8 1009.9 2.0
18/04:00am 11.1 7.7 11.1 100 0.0 NNW 20 24 11 13 1010.0 1010.1 2.0
18/03:30am 11.3 7.5 11.3 100 0.0 NW 22 30 12 16 1009.9 1010.0 1.8
18/03:00am 11.8 8.6 11.8 100 0.0 WNW 20 26 11 14 1010.1 1010.2 0.0
18/02:30am 10.9 8.7 10.9 100 0.0 NW 13 19 7 10 1009.8 1009.9 0.0
18/02:00am 10.5 7.5 10.5 100 0.0 NW 17 22 9 12 1009.9 1010.0 0.0
18/01:30am 8.7 5.5 8.6 99 0.0 NW 15 17 8 9 1009.7 1009.8 0.0
18/01:00am 8.4 5.2 8.4 100 0.0 NNW 15 17 8 9 1009.8 1009.9 0.0
18/12:30am 9.2 6.2 9.2 100 0.0 N 15 17 8 9 1009.3 1009.4 0.0
18/12:00am 10.2 7.1 10.2 100 0.0 N 17 19 9 10 1009.3 1009.4 0.0
 
Date/Time
CST
Temp
°C
App
Temp
°C
Dew
Point
°C
Rel
Hum
%
Delta-T
°C
Wind Press
QNH
hPa
Press
MSL
hPa
Rain since
9am
mm
Dir  Spd
km/h
Gust
km/h
Spd
kts
Gust
kts
17/11:30pm 9.5 7.3 9.5 100 0.0 NNW 11 13 6 7 1009.5 1009.6 0.0
17/11:00pm 9.7 7.6 9.7 100 0.0 N 11 13 6 7 1009.2 1009.3 0.0
17/10:30pm 9.2 7.7 9.1 99 0.0 NW 7 9 4 5 1009.5 1009.6 0.0
17/10:00pm 12.3 10.7 11.7 96 0.3 NNE 11 15 6 8 1009.3 1009.4 0.0
17/09:30pm 13.2 11.3 11.9 92 0.7 NE 13 17 7 9 1009.6 1009.7 0.0
17/09:00pm 14.2 11.1 12.2 88 1.1 ENE 20 24 11 13 1009.6 1009.7 0.0
17/08:30pm 14.2 11.3 12.4 89 1.0 ENE 19 24 10 13 1010.1 1010.2 0.0
17/08:00pm 14.0 11.6 12.6 91 0.8 ENE 17 22 9 12 1010.4 1010.5 0.0
17/07:30pm 14.2 11.5 12.9 92 0.7 ENE 19 22 10 12 1010.5 1010.6 0.0
17/07:00pm 14.2 11.3 12.9 92 0.7 ENE 20 26 11 14 1010.4 1010.5 0.0
17/06:30pm 14.4 12.2 13.3 93 0.6 NE 17 22 9 12 1010.7 1010.8 0.0
17/06:00pm 13.8 11.7 13.6 99 0.1 NE 17 19 9 10 1011.0 1011.1 0.0
17/05:30pm 14.3 12.8 14.1 99 0.1 NE 15 17 8 9 1011.4 1011.5 0.0
17/05:00pm 15.1 14.2 14.8 98 0.2 NE 13 15 7 8 1011.5 1011.6 0.0
17/04:30pm 15.9 15.5 15.1 95 0.5 NE 11 15 6 8 1011.8 1011.9 0.0
17/04:00pm 16.4 15.3 14.2 87 1.3 NNE 13 13 7 7 1011.8 1011.9 0.0
17/03:30pm 17.2 15.1 13.7 80 2.0 NNE 17 20 9 11 1012.0 1012.1 0.0
17/03:00pm 17.6 16.0 13.9 79 2.1 N 15 20 8 11 1012.4 1012.5 0.0
17/02:30pm 18.0 16.1 14.1 78 2.2 NNE 17 20 9 11 1012.7 1012.8 0.0
17/02:00pm 18.3 15.7 13.2 72 2.9 N 19 39 10 21 1013.3 1013.4 0.0
17/01:30pm 18.1 14.8 14.0 77 2.4 NNE 24 33 13 18 1013.9 1013.9 0.0
17/01:00pm 17.2 13.9 12.7 75 2.5 N 22 32 12 17 1014.6 1014.6 0.0
17/12:30pm 17.3 13.4 13.2 77 2.3 N 26 32 14 17 1015.5 1015.5 0.0
17/12:00pm 15.9 11.6 11.9 77 2.2 NNE 26 35 14 19 1015.9 1015.9 0.0
17/11:30am 16.4 11.8 12.4 77 2.2 NNE 28 33 15 18 1016.7 1016.7 0.0
17/11:00am 15.2 11.3 12.0 81 1.7 NE 24 32 13 17 1017.1 1017.1 0.0
17/10:30am 14.2 9.7 11.4 83 1.5 NE 26 35 14 19 1017.4 1017.4 0.0
17/10:00am 13.4 8.8 11.1 86 1.2 NE 26 32 14 17 1017.9 1017.9 0.0
17/09:30am 11.5 6.2 9.8 89 0.9 NE 28 33 15 18 1018.1 1018.1 0.0
17/09:00am 10.3 4.8 9.1 92 0.6 NE 28 37 15 20 1018.6 1018.7 0.0
17/08:30am 8.7 3.8 8.3 97 0.2 NE 24 32 13 17 1018.9 1019.0 0.0
17/08:00am 7.4 2.6 7.3 99 0.0 NE 22 30 12 16 1018.8 1018.9 0.0
17/07:30am 6.2 1.5 6.1 99 0.0 ENE 20 28 11 15 1018.9 1019.0 0.0
17/07:00am 4.5 0.8 4.5 100 0.0 E 13 17 7 9 1019.2 1019.3 0.0
17/06:30am 4.4 0.7 4.3 99 0.0 ENE 13 15 7 8 1019.2 1019.3 0.0
17/06:00am 5.1 1.1 5.1 100 0.0 ENE 15 17 8 9 1019.4 1019.5 0.0
17/05:30am 4.7 1.0 4.6 99 0.0 ENE 13 15 7 8 1019.4 1019.5 0.0
17/05:00am 4.9 0.5 4.8 99 0.0 ENE 17 20 9 11 1019.2 1019.3 0.0
17/04:30am 5.9 1.1 5.8 99 0.0 NE 20 24 11 13 1019.3 1019.4 0.0
17/04:00am 6.6 2.6 6.5 99 0.0 NE 17 20 9 11 1019.5 1019.6 0.0
17/03:30am 7.5 4.0 7.4 99 0.0 ENE 15 20 8 11 1019.5 1019.6 0.0
17/03:00am 8.9 5.3 8.5 97 0.2 ENE 17 22 9 12 1019.6 1019.7 0.0
17/02:30am 9.0 7.1 8.9 99 0.0 E 9 13 5 7 1020.0 1020.1 0.0
17/02:00am 8.8 7.2 8.8 100 0.0 ENE 7 9 4 5 1020.4 1020.5 0.0
17/01:30am 9.1 7.6 9.1 100 0.0 E 7 7 4 4 1020.6 1020.7 0.0
17/01:00am 9.3 7.8 9.3 100 0.0 E 7 9 4 5 1020.7 1020.8 0.0
17/12:30am 9.5 9.0 9.5 100 0.0 ENE 2 7 1 4 1020.8 1020.9 0.0
17/12:00am 9.6 8.2 9.6 100 0.0 ENE 7 9 4 5 1020.9 1021.0 0.0
 
Date/Time
CST
Temp
°C
App
Temp
°C
Dew
Point
°C
Rel
Hum
%
Delta-T
°C
Wind Press
QNH
hPa
Press
MSL
hPa
Rain since
9am
mm
Dir  Spd
km/h
Gust
km/h
Spd
kts
Gust
kts
16/11:30pm 9.5 7.3 9.5 100 0.0 ENE 11 13 6 7 1021.0 1021.1 0.0
16/11:00pm 9.3 7.1 9.3 100 0.0 ENE 11 11 6 6 1021.0 1021.1 0.0
16/10:30pm 9.0 7.4 8.9 99 0.0 E 7 9 4 5 1021.1 1021.2 0.0
16/10:00pm 10.1 8.0 9.8 98 0.2 ESE 11 13 6 7 1021.0 1021.1 0.0
16/09:30pm 10.1 9.0 10.1 100 0.0 E 6 7 3 4 1021.1 1021.2 0.0
16/09:00pm 10.3 10.4 10.3 100 0.0 CALM 0 7 0 4 1021.0 1021.1 0.0
16/08:30pm 10.6 10.1 10.6 100 0.0 NE 4 7 2 4 1021.1 1021.2 0.0
16/08:00pm 10.5 9.4 10.5 100 0.0 NNW 7 9 4 5 1021.2 1021.3 0.0
16/07:30pm 10.8 9.7 10.8 100 0.0 NE 7 9 4 5 1021.2 1021.3 0.0
16/07:00pm 11.7 11.1 11.7 100 0.0 SSW 6 9 3 5 1020.9 1021.0 0.0
16/06:30pm 11.4 10.1 11.4 100 0.0 S 9 11 5 6 1020.4 1020.5 0.0
16/06:00pm 10.7 9.2 10.7 100 0.0 SW 9 17 5 9 1019.9 1020.0 0.0
16/05:30pm 11.7 10.1 11.4 98 0.2 WSW 11 15 6 8 1019.7 1019.8 0.0
16/05:00pm 13.4 11.6 12.1 92 0.7 SW 13 19 7 10 1019.7 1019.8 0.0
16/04:30pm 13.7 10.8 12.3 91 0.8 SW 19 24 10 13 1019.4 1019.5 0.0
16/04:00pm 14.0 11.2 12.7 92 0.7 SW 19 24 10 13 1019.3 1019.4 0.0
16/03:30pm 14.3 11.2 12.3 88 1.1 SW 20 28 11 15 1019.1 1019.2 0.0
16/03:00pm 14.4 11.4 12.4 88 1.1 SW 20 26 11 14 1019.0 1019.1 0.0
16/02:30pm 14.9 12.2 13.4 91 0.8 SW 20 28 11 15 1018.9 1019.0 0.0
16/02:00pm 14.7 11.4 12.9 89 1.0 SW 22 30 12 16 1018.9 1019.0 0.0
16/01:30pm 14.5 11.6 12.9 90 0.9 SW 20 28 11 15 1018.6 1018.7 0.0
16/01:00pm 14.0 9.6 12.9 93 0.6 SW 28 35 15 19 1018.4 1018.4 0.0
16/12:30pm 14.5 11.3 14.3 99 0.1 SW 24 33 13 18 1018.8 1018.9 0.0
16/12:00pm 13.7 10.7 13.7 100 0.0 SW 22 33 12 18 1018.8 1018.9 0.0
16/11:30am 13.0 10.1 13.0 100 0.0 WSW 20 32 11 17 1018.9 1019.0 0.0
16/11:00am 13.2 10.6 13.2 100 0.0 W 19 24 10 13 1018.7 1018.8 0.0
16/10:30am 13.2 9.6 13.2 100 0.0 W 24 33 13 18 1018.2 1018.2 0.0
16/10:00am 13.0 9.8 13.0 100 0.0 WNW 22 30 12 16 1017.9 1017.9 0.0
16/09:30am 12.5 8.3 12.5 100 0.0 WNW 26 33 14 18 1017.9 1017.9 0.0
16/09:00am 12.2 7.6 12.2 100 0.0 WNW 28 35 15 19 1017.6 1017.6 0.0
16/08:30am 12.4 8.6 12.4 100 0.0 WNW 24 30 13 16 1017.5 1017.5 0.0
16/08:00am 12.1 9.1 12.1 100 0.0 NW 19 26 10 14 1017.4 1017.4 0.0
16/07:30am 11.6 8.5 11.6 100 0.0 WNW 19 24 10 13 1017.2 1017.2 0.0
16/07:00am 11.1 8.2 11.1 100 0.0 WNW 17 20 9 11 1016.5 1016.5 0.0
16/06:30am 11.6 9.6 11.4 99 0.1 W 13 17 7 9 1017.0 1017.0 0.0
16/06:00am 11.1 9.4 10.0 93 0.6 NNW 9 13 5 7 1016.9 1016.9 0.0
16/05:30am 10.8 8.6 9.2 90 0.8 NNE 11 13 6 7 1016.4 1016.4 0.0
16/05:00am 11.1 9.0 8.1 82 1.5 N 9 11 5 6 1016.4 1016.4 0.0
16/04:30am 11.6 8.4 6.9 73 2.2 WNW 13 17 7 9 1016.4 1016.4 0.0
16/04:00am 11.9 8.0 5.3 64 3.1 NW 15 20 8 11 1016.0 1016.0 0.0
16/03:30am 12.3 7.9 4.8 60 3.4 NW 17 22 9 12 1015.2 1015.2 0.0
16/03:00am 13.4 8.4 4.8 56 4.0 NNW 20 28 11 15 1014.8 1014.8 0.0
16/02:30am 13.8 8.0 4.4 53 4.3 NNW 24 33 13 18 1014.3 1014.3 0.0
16/02:00am 14.4 7.8 4.4 51 4.6 NNW 28 35 15 19 1014.2 1014.2 0.0
16/01:30am 11.8 7.0 4.8 62 3.2 NNW 19 24 10 13 1014.7 1014.7 0.0
16/01:00am 11.8 7.4 4.8 62 3.2 NNW 17 22 9 12 1014.3 1014.3 0.0
16/12:30am 14.1 9.2 4.9 54 4.3 NNW 20 26 11 14 1014.4 1014.4 0.0
16/12:00am 14.9 9.6 5.1 52 4.6 N 22 28 12 15 1014.4 1014.4 0.0
 
Date/Time
CST
Temp
°C
App
Temp
°C
Dew
Point
°C
Rel
Hum
%
Delta-T
°C
Wind Press
QNH
hPa
Press
MSL
hPa
Rain since
9am
mm
Dir  Spd
km/h
Gust
km/h
Spd
kts
Gust
kts
15/11:30pm 14.4 9.7 5.0 53 4.4 N 19 24 10 13 1014.7 1014.7 0.0
15/11:00pm 14.6 9.7 5.1 53 4.5 N 20 26 11 14 1014.9 1014.9 0.0
15/10:30pm 14.6 9.8 5.4 54 4.4 N 20 24 11 13 1015.0 1015.0 0.0
15/10:00pm 14.3 9.5 5.7 56 4.1 N 20 24 11 13 1015.0 1015.0 0.0
15/09:30pm 14.6 8.7 5.7 55 4.2 N 26 30 14 16 1015.0 1015.0 0.0
15/09:00pm 14.1 8.7 6.5 60 3.7 N 24 30 13 16 1015.1 1015.1 0.0
15/08:30pm 14.1 9.7 7.2 63 3.4 NNE 20 26 11 14 1015.3 1015.3 0.0
15/08:00pm 13.2 9.5 8.1 71 2.5 NNE 17 19 9 10 1015.4 1015.4 0.0
15/07:30pm 13.0 9.3 9.4 79 1.8 NE 19 20 10 11 1015.3 1015.3 0.0
15/07:00pm 14.2 10.9 9.4 73 2.5 NE 17 20 9 11 1015.6 1015.6 0.0
15/06:30pm 15.4 12.3 10.2 71 2.7 N 17 24 9 13 1015.8 1015.8 0.0
15/06:00pm 15.2 12.0 11.4 78 2.0 NNE 19 20 10 11 1015.6 1015.6 0.0
15/05:30pm 14.8 13.0 12.1 84 1.5 N 13 17 7 9 1015.9 1015.9 0.0
15/05:00pm 16.3 14.8 13.0 81 1.8 N 13 15 7 8 1015.7 1015.7 0.0
15/04:30pm 16.3 14.3 12.8 80 1.9 N 15 19 8 10 1015.6 1015.6 0.0
15/04:00pm 18.6 15.6 12.6 68 3.4 N 20 26 11 14 1015.4 1015.4 0.0
15/03:30pm 18.8 15.0 12.3 66 3.6 N 24 33 13 18 1015.5 1015.5 0.0

Latest Capital City Observations: Canberra | Sydney | Melbourne | Brisbane | Adelaide | Perth | Hobart | Darwin

Other formats

Comma delimited format used in spreadsheet applications
http://www.bom.gov.au/fwo/IDS60901/IDS60901.95671.axf

JavaScript Object Notation format (JSON) in row-major order
http://www.bom.gov.au/fwo/IDS60901/IDS60901.95671.json

Data quality

Most of these data are generated automatically and are frequently updated. Quality checks on data are not normally performed. It is possible for incorrect values to appear. Refer to information at About Latest Weather Observations and please check the disclaimer before using these data.